Time;durP1;ratioP1;P1;durP2;ratioP2;P2;SDS_P1;SDS_P2;PMS_P1;PMS_P2;Temp;Humidity;BMP_temperature;BMP_pressure;BME280_temperature;BME280_humidity;BME280_pressure;Samples;Min_cycle;Max_cycle;Signal;HPM_P1;HPM_P2
2022/06/10 00:01:14;;;;;;;3.27;0.77;;;16.20;99.90;;;;;;5091941;28;20612;-65
2022/06/10 00:03:42;;;;;;;1.77;0.60;;;16.40;99.90;;;;;;5092366;28;20177;-65
2022/06/10 00:06:12;;;;;;;0.90;0.70;;;16.90;99.90;;;;;;5092070;28;20577;-65
2022/06/10 00:08:44;;;;;;;0.73;0.47;;;16.90;99.90;;;;;;5085941;28;20211;-65
2022/06/10 00:11:13;;;;;;;14.20;3.03;;;17.10;99.90;;;;;;5091803;28;20179;-65
2022/06/10 00:13:45;;;;;;;4.57;0.80;;;17.00;99.90;;;;;;5092081;28;20642;-66
2022/06/10 00:16:17;;;;;;;1.17;0.60;;;17.10;99.90;;;;;;5092549;28;20466;-66
2022/06/10 00:18:45;;;;;;;1.17;0.57;;;16.90;99.90;;;;;;5073465;28;20320;-66
2022/06/10 00:21:15;;;;;;;2.70;0.60;;;17.10;99.90;;;;;;5084259;28;20721;-67
2022/06/10 00:23:43;;;;;;;1.37;0.60;;;17.40;99.90;;;;;;5072047;28;20527;-66
2022/06/10 00:26:13;;;;;;;3.70;0.60;;;17.80;99.90;;;;;;5089177;28;20233;-66
2022/06/10 00:28:43;;;;;;;1.20;0.40;;;18.10;99.90;;;;;;5091862;28;20205;-65
2022/06/10 00:31:12;;;;;;;0.77;0.50;;;17.60;99.90;;;;;;5073857;28;20280;-65
2022/06/10 00:33:40;;;;;;;0.93;0.60;;;17.50;99.90;;;;;;5091324;28;20190;-65
2022/06/10 00:36:10;;;;;;;0.97;0.40;;;17.10;99.90;;;;;;5091693;28;20189;-66
2022/06/10 00:38:38;;;;;;;1.10;0.50;;;17.50;99.90;;;;;;5089928;28;20184;-66
2022/06/10 00:41:06;;;;;;;1.60;0.60;;;17.80;99.90;;;;;;5091668;28;20185;-65
2022/06/10 00:43:36;;;;;;;2.30;0.70;;;18.40;99.90;;;;;;5091370;28;20247;-66
2022/06/10 00:46:22;;;;;;;0.40;0.40;;;17.60;99.90;;;;;;5089923;28;20188;-64
2022/06/10 00:49:07;;;;;;;3.53;0.50;;;17.70;99.90;;;;;;5091674;28;20218;-64
2022/06/10 00:51:46;;;;;;;0.77;0.50;;;17.80;99.90;;;;;;5086702;28;20509;-66
2022/06/10 00:54:39;;;;;;;2.00;0.50;;;17.60;99.90;;;;;;5102793;28;20207;-67
2022/06/10 00:57:16;;;;;;;2.37;0.57;;;18.40;99.90;;;;;;5091339;28;20710;-67
2022/06/10 00:59:55;;;;;;;4.80;0.60;;;18.30;99.90;;;;;;5091534;28;20230;-67
2022/06/10 01:02:26;;;;;;;0.60;0.40;;;18.10;99.90;;;;;;5087808;28;20230;-66
2022/06/10 01:04:58;;;;;;;1.77;0.60;;;18.60;99.90;;;;;;5083506;28;20181;-67
2022/06/10 01:07:31;;;;;;;0.77;0.40;;;18.70;99.90;;;;;;5091138;28;20647;-67
2022/06/10 01:10:01;;;;;;;0.67;0.37;;;18.60;99.90;;;;;;5075960;28;20214;-66
2022/06/10 01:12:35;;;;;;;1.27;0.40;;;18.40;99.90;;;;;;5095601;28;20182;-67
2022/06/10 01:15:33;;;;;;;1.67;0.37;;;18.40;99.90;;;;;;5095544;28;20221;-67
2022/06/10 01:18:41;;;;;;;3.77;0.90;;;18.40;99.90;;;;;;5068600;28;20650;-68
2022/06/10 01:21:09;;;;;;;3.53;0.40;;;19.10;99.90;;;;;;5095185;28;20930;-67
2022/06/10 01:23:40;;;;;;;0.50;0.37;;;19.30;99.90;;;;;;5077314;28;20623;-67
2022/06/10 01:26:10;;;;;;;0.30;0.30;;;19.40;99.90;;;;;;5094887;28;20230;-66
2022/06/10 01:29:00;;;;;;;0.40;0.30;;;19.50;99.90;;;;;;5095181;28;20268;-65
2022/06/10 01:31:47;;;;;;;0.30;0.30;;;19.00;99.90;;;;;;5095702;28;20325;-66
2022/06/10 01:34:26;;;;;;;0.87;0.30;;;19.20;99.90;;;;;;5095435;28;20175;-66
2022/06/10 01:37:14;;;;;;;2.70;0.40;;;18.90;99.90;;;;;;5095426;28;20213;-65
2022/06/10 01:39:51;;;;;;;5.20;0.30;;;18.90;99.90;;;;;;5094351;28;20191;-68
2022/06/10 01:42:40;;;;;;;0.60;0.50;;;19.10;99.90;;;;;;5095173;28;20174;-67
2022/06/10 01:45:38;;;;;;;0.40;0.40;;;19.40;99.90;;;;;;5094004;28;20802;-65
2022/06/10 01:48:16;;;;;;;3.60;0.30;;;19.50;99.90;;;;;;5094396;28;20188;-67
2022/06/10 01:51:02;;;;;;;1.07;0.40;;;19.10;98.00;;;;;;5092449;28;20218;-67
2022/06/10 01:53:38;;;;;;;0.57;0.57;;;18.90;99.90;;;;;;5094724;28;20175;-68
2022/06/10 01:56:17;;;;;;;0.73;0.40;;;19.10;99.60;;;;;;5094388;28;20235;-67
2022/06/10 01:59:27;;;;;;;0.93;0.40;;;18.90;98.70;;;;;;5094714;28;20182;-67
2022/06/10 02:02:02;;;;;;;0.77;0.40;;;19.20;98.60;;;;;;5084989;28;20196;-67
2022/06/10 02:04:47;;;;;;;0.40;0.40;;;19.30;97.10;;;;;;5094913;28;20234;-67
2022/06/10 02:07:23;;;;;;;3.53;0.50;;;19.40;96.30;;;;;;5094733;28;20186;-67
2022/06/10 02:10:03;;;;;;;0.30;0.30;;;19.50;96.90;;;;;;5094045;28;20206;-67
2022/06/10 02:12:45;;;;;;;3.40;0.40;;;19.30;97.30;;;;;;5094501;28;20647;-67
2022/06/10 02:15:30;;;;;;;0.63;0.37;;;19.50;97.20;;;;;;5094545;28;20187;-66
2022/06/10 02:18:29;;;;;;;0.50;0.40;;;19.90;94.10;;;;;;5094535;28;20607;-66
2022/06/10 02:21:16;;;;;;;0.40;0.40;;;19.70;94.50;;;;;;5081834;28;20206;-67
2022/06/10 02:23:54;;;;;;;0.63;0.40;;;20.00;95.50;;;;;;5094341;28;20189;-65
2022/06/10 02:26:25;;;;;;;1.27;0.40;;;19.70;94.80;;;;;;5087745;28;20222;-66
2022/06/10 02:28:55;;;;;;;0.40;0.40;;;19.80;94.70;;;;;;5087919;28;20206;-66
2022/06/10 02:31:44;;;;;;;0.37;0.30;;;19.30;93.20;;;;;;5085051;28;20210;-65
2022/06/10 02:34:12;;;;;;;1.50;0.40;;;19.10;92.50;;;;;;5085739;28;20749;-67
2022/06/10 02:36:46;;;;;;;3.60;0.43;;;19.30;92.70;;;;;;5080386;28;20240;-66
2022/06/10 02:39:33;;;;;;;0.93;0.50;;;19.60;92.10;;;;;;5075731;28;20190;-67
2022/06/10 02:42:18;;;;;;;0.90;0.40;;;19.10;92.00;;;;;;5078076;28;20582;-66
2022/06/10 02:44:46;;;;;;;0.30;0.30;;;19.00;93.40;;;;;;5093838;28;20175;-66
2022/06/10 02:47:41;;;;;;;2.90;0.40;;;19.00;93.10;;;;;;5093891;28;20234;-66
2022/06/10 02:50:11;;;;;;;0.50;0.50;;;19.40;93.30;;;;;;5092822;28;20215;-67
2022/06/10 02:52:40;;;;;;;3.60;0.40;;;19.70;92.40;;;;;;5093343;28;20659;-67
2022/06/10 02:55:14;;;;;;;0.67;0.30;;;19.70;92.80;;;;;;5093750;28;20189;-67
2022/06/10 03:03:47;;;;;;;2.00;0.40;;;19.70;90.00;;;;;;5086507;28;20198;-67
2022/06/10 03:06:43;;;;;;;2.03;0.40;;;20.10;91.20;;;;;;5090918;28;20198;-67
2022/06/10 03:09:56;;;;;;;2.03;0.50;;;19.80;87.90;;;;;;5093445;28;20681;-67
2022/06/10 03:12:27;;;;;;;0.90;0.40;;;19.40;89.40;;;;;;5036934;28;20209;-67
2022/06/10 03:15:20;;;;;;;0.30;0.30;;;19.40;90.70;;;;;;5073452;28;20246;-67
2022/06/10 03:18:13;;;;;;;0.33;0.30;;;19.50;90.40;;;;;;5091433;28;20287;-67
2022/06/10 03:20:45;;;;;;;1.70;0.50;;;19.30;90.50;;;;;;5093285;28;20172;-66
2022/06/10 03:23:35;;;;;;;0.50;0.23;;;19.10;92.80;;;;;;5071230;28;20581;-66
2022/06/10 03:26:13;;;;;;;0.30;0.30;;;19.30;92.70;;;;;;5039386;28;20244;-66
2022/06/10 03:29:03;;;;;;;0.30;0.30;;;19.80;92.50;;;;;;5081343;28;20211;-66
2022/06/10 03:31:37;;;;;;;4.43;0.40;;;19.60;90.30;;;;;;5091844;28;20658;-66
2022/06/10 03:34:27;;;;;;;0.40;0.30;;;19.50;89.70;;;;;;5091301;28;20191;-67
2022/06/10 03:36:58;;;;;;;1.07;0.40;;;19.60;91.20;;;;;;5092329;28;20183;-67
2022/06/10 03:39:27;;;;;;;0.30;0.30;;;19.50;91.00;;;;;;5072823;28;20284;-67
2022/06/10 03:42:11;;;;;;;0.30;0.30;;;19.40;91.00;;;;;;5072661;28;20187;-67
2022/06/10 03:44:40;;;;;;;3.30;0.30;;;19.50;88.80;;;;;;5085717;28;20182;-68
2022/06/10 03:47:13;;;;;;;0.60;0.60;;;19.40;89.40;;;;;;5092922;28;20185;-68
2022/06/10 03:50:09;;;;;;;0.40;0.40;;;19.40;90.30;;;;;;5092730;28;20206;-67
2022/06/10 03:52:40;;;;;;;0.70;0.30;;;19.70;90.10;;;;;;5074577;28;20289;-67
2022/06/10 03:55:09;;;;;;;0.60;0.30;;;19.50;90.50;;;;;;5092643;28;20949;-67
2022/06/10 03:57:37;;;;;;;0.53;0.30;;;19.50;89.30;;;;;;5092573;28;20179;-67
2022/06/10 04:00:06;;;;;;;1.87;0.30;;;20.00;91.70;;;;;;5092573;28;20202;-68
2022/06/10 04:02:34;;;;;;;0.20;0.20;;;19.70;90.90;;;;;;5092637;28;20183;-69
2022/06/10 04:05:02;;;;;;;2.80;0.50;;;19.80;90.90;;;;;;5092262;28;20656;-68
2022/06/10 04:07:30;;;;;;;0.50;0.30;;;19.90;91.80;;;;;;5092189;28;20587;-67
2022/06/10 04:09:57;;;;;;;2.43;0.57;;;20.10;88.60;;;;;;5092241;28;20301;-66
2022/06/10 04:12:26;;;;;;;0.80;0.30;;;19.80;88.20;;;;;;5092267;28;20179;-67
2022/06/10 04:14:54;;;;;;;0.30;0.30;;;19.30;88.30;;;;;;5091965;28;20246;-68
2022/06/10 04:17:22;;;;;;;0.37;0.37;;;19.40;88.40;;;;;;5092352;28;20222;-67
2022/06/10 04:19:50;;;;;;;1.07;0.57;;;19.60;89.00;;;;;;5091716;28;20192;-69
2022/06/10 04:22:18;;;;;;;2.70;0.33;;;20.00;90.00;;;;;;5092205;28;20184;-68
2022/06/10 04:24:46;;;;;;;11.87;7.57;;;19.60;90.00;;;;;;5091607;28;20194;-68
2022/06/10 04:27:14;;;;;;;0.30;0.30;;;19.20;90.50;;;;;;5091945;28;20224;-68
2022/06/10 04:29:41;;;;;;;0.50;0.40;;;19.40;90.30;;;;;;5091752;28;20215;-67
2022/06/10 04:32:09;;;;;;;0.97;0.30;;;19.40;90.20;;;;;;5092025;28;20178;-68
2022/06/10 04:34:37;;;;;;;0.37;0.33;;;19.10;90.10;;;;;;5091875;28;20544;-68
2022/06/10 04:37:05;;;;;;;0.60;0.50;;;19.30;90.90;;;;;;5090852;28;20232;-67
2022/06/10 04:39:34;;;;;;;2.03;0.40;;;19.30;90.50;;;;;;5091676;28;20169;-67
2022/06/10 04:42:02;;;;;;;0.40;0.40;;;19.00;89.10;;;;;;5091682;28;20174;-68
2022/06/10 04:44:29;;;;;;;0.90;0.40;;;19.00;90.70;;;;;;5077083;28;20182;-68
2022/06/10 04:46:57;;;;;;;0.97;0.40;;;19.20;90.40;;;;;;5071688;28;20187;-68
2022/06/10 04:49:25;;;;;;;1.17;0.33;;;19.30;90.90;;;;;;5072148;28;20675;-68
2022/06/10 04:51:53;;;;;;;0.50;0.40;;;19.00;92.00;;;;;;5081370;28;20275;-68
2022/06/10 04:54:20;;;;;;;0.30;0.30;;;19.10;92.20;;;;;;5091824;28;20234;-68
2022/06/10 04:56:48;;;;;;;0.50;0.40;;;19.00;91.20;;;;;;5091833;28;20167;-68
2022/06/10 04:59:16;;;;;;;0.57;0.40;;;18.60;90.80;;;;;;5091670;28;20645;-70
2022/06/10 05:01:44;;;;;;;0.90;0.40;;;18.70;92.00;;;;;;5091419;28;20175;-69
2022/06/10 05:04:11;;;;;;;0.30;0.30;;;18.70;92.50;;;;;;5091730;28;20233;-69
2022/06/10 05:06:39;;;;;;;0.50;0.50;;;18.50;91.60;;;;;;5091263;28;20539;-68
2022/06/10 05:09:07;;;;;;;0.60;0.40;;;18.60;93.40;;;;;;5091532;28;20749;-68
2022/06/10 05:11:35;;;;;;;0.40;0.40;;;18.50;93.60;;;;;;5073116;28;20187;-68
2022/06/10 05:14:02;;;;;;;1.43;0.43;;;18.50;93.30;;;;;;5091508;28;20180;-67
2022/06/10 05:16:30;;;;;;;0.93;0.60;;;18.60;93.70;;;;;;5091251;28;20178;-69
2022/06/10 05:18:58;;;;;;;0.67;0.53;;;18.80;93.10;;;;;;5091607;28;20167;-68
2022/06/10 05:21:25;;;;;;;0.53;0.40;;;18.50;93.20;;;;;;5091157;28;20185;-67
2022/06/10 05:23:53;;;;;;;0.77;0.70;;;18.00;94.80;;;;;;5091438;28;20236;-67
2022/06/10 05:26:21;;;;;;;0.80;0.70;;;17.80;95.90;;;;;;5072498;28;20296;-68
2022/06/10 05:28:51;;;;;;;1.17;0.60;;;17.40;97.00;;;;;;5087831;28;20199;-66
2022/06/10 05:31:19;;;;;;;1.20;1.10;;;17.30;99.40;;;;;;5071118;28;20196;-67
2022/06/10 05:36:33;;;;;;;1.70;0.80;;;16.90;99.90;;;;;;5083101;28;20307;-67
2022/06/10 05:39:00;;;;;;;2.10;0.70;;;16.70;99.90;;;;;;5091347;28;20175;-68
2022/06/10 05:44:14;;;;;;;0.93;0.60;;;16.30;99.90;;;;;;5090861;28;20266;-66
2022/06/10 05:46:41;;;;;;;3.13;2.00;;;16.20;99.90;;;;;;5087776;28;20210;-68
2022/06/10 05:49:10;;;;;;;1.33;1.10;;;16.10;99.90;;;;;;5091160;28;20226;-67
2022/06/10 05:51:38;;;;;;;2.07;0.70;;;16.00;99.90;;;;;;5073083;28;20184;-67
2022/06/10 05:54:06;;;;;;;0.93;0.70;;;15.90;99.90;;;;;;5092318;28;20183;-67
2022/06/10 05:56:33;;;;;;;0.90;0.50;;;15.80;99.90;;;;;;5094647;28;20214;-67
2022/06/10 05:59:00;;;;;;;1.77;0.80;;;15.80;99.90;;;;;;5094986;28;20182;-66
2022/06/10 06:01:28;;;;;;;1.53;0.80;;;15.70;99.90;;;;;;5095109;28;20624;-67
2022/06/10 06:03:55;;;;;;;0.70;0.70;;;15.60;99.90;;;;;;5094596;28;20240;-67
2022/06/10 06:06:23;;;;;;;0.40;0.40;;;15.60;99.90;;;;;;5094574;28;20190;-67
2022/06/10 06:08:50;;;;;;;1.17;0.63;;;15.60;99.90;;;;;;5094800;28;20227;-67
2022/06/10 06:11:18;;;;;;;1.10;0.63;;;15.60;99.90;;;;;;5094800;28;20170;-66
2022/06/10 06:13:46;;;;;;;0.50;0.50;;;15.50;99.90;;;;;;5094796;28;20205;-66
2022/06/10 06:16:16;;;;;;;1.20;0.60;;;15.40;99.90;;;;;;5075902;28;20254;-67
2022/06/10 06:18:44;;;;;;;1.07;0.50;;;15.30;99.90;;;;;;5094544;28;20552;-66
2022/06/10 06:21:12;;;;;;;0.50;0.50;;;15.30;99.90;;;;;;5076313;28;20269;-66
2022/06/10 06:23:41;;;;;;;0.70;0.60;;;15.20;99.90;;;;;;5094609;28;20667;-66
2022/06/10 06:26:15;;;;;;;0.60;0.40;;;15.20;99.90;;;;;;5094181;28;20226;-67
2022/06/10 06:28:43;;;;;;;1.70;0.70;;;15.10;99.90;;;;;;5094452;28;20219;-66
2022/06/10 06:31:12;;;;;;;2.13;1.20;;;15.00;99.90;;;;;;5094300;28;20264;-67
2022/06/10 06:33:41;;;;;;;1.53;0.60;;;14.90;99.90;;;;;;5094141;28;20186;-67
2022/06/10 06:36:10;;;;;;;1.10;0.67;;;14.90;99.90;;;;;;5094347;28;20215;-66
2022/06/10 06:38:37;;;;;;;0.70;0.60;;;14.80;99.90;;;;;;5094192;28;20185;-66
2022/06/10 06:41:05;;;;;;;1.83;0.90;;;14.70;99.90;;;;;;5086221;28;20185;-66
2022/06/10 06:43:32;;;;;;;3.87;0.80;;;14.70;99.90;;;;;;5084600;28;20179;-66
2022/06/10 06:46:00;;;;;;;1.07;0.80;;;14.60;99.90;;;;;;5085599;28;20186;-65
2022/06/10 06:48:27;;;;;;;1.40;0.80;;;14.50;99.90;;;;;;5074701;28;20207;-66
2022/06/10 06:50:54;;;;;;;0.87;0.77;;;14.50;99.90;;;;;;5073892;28;20175;-65
2022/06/10 06:53:22;;;;;;;0.67;0.67;;;14.40;99.90;;;;;;5073784;28;20183;-66
2022/06/10 06:55:49;;;;;;;1.37;0.90;;;14.30;99.90;;;;;;5075177;28;20177;-66
2022/06/10 06:58:18;;;;;;;1.40;0.80;;;14.30;99.90;;;;;;5093046;28;20268;-66
2022/06/10 07:00:46;;;;;;;2.00;0.60;;;14.20;99.90;;;;;;5093574;28;20179;-67
2022/06/10 07:03:13;;;;;;;0.97;0.87;;;14.10;99.90;;;;;;5093944;28;20636;-66
2022/06/10 07:05:42;;;;;;;1.00;0.60;;;14.00;99.90;;;;;;5092626;28;20189;-65
2022/06/10 07:08:10;;;;;;;1.00;0.60;;;14.00;99.90;;;;;;5093334;28;20554;-65
2022/06/10 07:10:37;;;;;;;3.27;0.80;;;13.90;99.90;;;;;;5093238;28;20217;-65
2022/06/10 07:13:05;;;;;;;1.90;0.90;;;13.90;99.90;;;;;;5093341;28;20177;-66
2022/06/10 07:15:32;;;;;;;2.83;1.00;;;13.80;99.90;;;;;;5075790;28;20206;-66
2022/06/10 07:18:01;;;;;;;0.97;0.60;;;13.80;99.90;;;;;;5092900;28;20183;-65
2022/06/10 07:20:31;;;;;;;2.20;0.60;;;13.70;99.90;;;;;;5093490;28;20181;-66
2022/06/10 07:22:59;;;;;;;3.20;0.83;;;13.70;99.90;;;;;;5093529;28;20185;-66
2022/06/10 07:25:29;;;;;;;5.30;0.80;;;13.60;99.90;;;;;;5079707;28;20689;-66
2022/06/10 07:27:56;;;;;;;1.30;1.20;;;13.60;99.90;;;;;;5092402;28;20189;-66
2022/06/10 07:30:27;;;;;;;1.20;1.00;;;13.50;99.90;;;;;;5093141;28;20224;-67
2022/06/10 07:32:54;;;;;;;0.87;0.80;;;13.40;99.90;;;;;;5092814;28;20324;-66
2022/06/10 07:35:22;;;;;;;2.17;0.70;;;13.40;99.90;;;;;;5093233;28;20189;-66
2022/06/10 07:37:52;;;;;;;1.10;0.90;;;13.30;99.90;;;;;;5083749;28;20204;-64
2022/06/10 07:43:09;;;;;;;1.13;0.80;;;13.10;99.90;;;;;;5082266;28;21016;-66
2022/06/10 07:45:37;;;;;;;0.63;0.60;;;13.00;99.90;;;;;;5089878;28;20192;-66
2022/06/10 07:48:06;;;;;;;0.93;0.80;;;13.00;99.90;;;;;;5092676;28;20189;-66
2022/06/10 07:50:33;;;;;;;2.63;0.90;;;12.80;99.90;;;;;;5092913;28;20613;-67
2022/06/10 07:53:01;;;;;;;1.73;1.40;;;12.60;99.90;;;;;;5093006;28;20177;-66
2022/06/10 07:55:28;;;;;;;4.37;0.90;;;12.50;99.90;;;;;;5092433;28;20207;-65
2022/06/10 07:57:55;;;;;;;3.57;1.30;;;12.50;99.90;;;;;;5091977;28;20270;-64
2022/06/10 08:00:25;;;;;;;2.20;0.70;;;12.50;99.90;;;;;;5092676;28;20172;-65
2022/06/10 08:02:52;;;;;;;4.03;0.90;;;12.50;99.90;;;;;;5092452;28;20184;-66
2022/06/10 08:05:21;;;;;;;1.70;1.00;;;12.70;99.90;;;;;;5092642;28;20235;-65
2022/06/10 08:07:48;;;;;;;3.07;1.70;;;12.70;99.90;;;;;;5092598;28;20184;-65
2022/06/10 08:10:27;;;;;;;2.23;1.10;;;12.60;99.90;;;;;;5092306;28;20214;-65
2022/06/10 08:12:54;;;;;;;1.17;0.80;;;12.50;99.90;;;;;;5092456;28;20613;-67
2022/06/10 08:15:23;;;;;;;1.30;0.90;;;12.50;99.90;;;;;;5092467;28;20220;-66
2022/06/10 08:17:52;;;;;;;1.00;0.90;;;12.40;99.90;;;;;;5074095;28;20177;-67
2022/06/10 08:20:24;;;;;;;1.00;0.90;;;12.40;99.90;;;;;;5092400;28;20189;-66
2022/06/10 08:22:51;;;;;;;3.53;1.20;;;12.40;99.90;;;;;;5092563;28;20269;-67
2022/06/10 08:25:19;;;;;;;1.77;1.10;;;12.20;99.90;;;;;;5083569;28;20305;-66
2022/06/10 08:27:49;;;;;;;1.93;1.37;;;11.90;99.90;;;;;;5065659;28;20184;-67
2022/06/10 08:30:16;;;;;;;1.57;1.10;;;11.70;99.90;;;;;;5070712;28;20216;-66
2022/06/10 08:32:44;;;;;;;0.70;0.60;;;11.60;99.90;;;;;;5080632;28;20172;-66
2022/06/10 08:35:11;;;;;;;0.97;0.80;;;12.20;99.90;;;;;;5079992;28;20191;-67
2022/06/10 08:37:38;;;;;;;1.00;0.80;;;12.40;99.90;;;;;;5064043;28;20236;-67
2022/06/10 08:40:07;;;;;;;1.07;0.80;;;12.20;99.90;;;;;;5063802;28;20169;-65
2022/06/10 08:42:42;;;;;;;1.20;0.90;;;12.20;99.90;;;;;;5062318;28;20186;-65
2022/06/10 08:45:30;;;;;;;1.13;0.80;;;12.10;99.90;;;;;;5080550;28;20525;-65
2022/06/10 08:48:16;;;;;;;2.87;1.07;;;11.90;99.90;;;;;;5080479;28;20181;-67
2022/06/10 08:50:59;;;;;;;1.40;0.93;;;11.60;99.90;;;;;;5082537;28;20255;-65
2022/06/10 08:54:04;;;;;;;1.17;1.07;;;11.30;99.90;;;;;;5079851;28;20169;-67
2022/06/10 08:56:40;;;;;;;1.43;1.00;;;11.10;99.90;;;;;;5061577;28;20196;-66
2022/06/10 08:59:34;;;;;;;1.40;1.10;;;11.00;99.90;;;;;;5081185;28;20211;-67
2022/06/10 09:02:23;;;;;;;4.67;1.77;;;10.80;99.90;;;;;;5063940;28;20223;-66
2022/06/10 09:05:03;;;;;;;1.87;1.20;;;11.10;99.90;;;;;;5081421;28;20177;-66
2022/06/10 09:07:41;;;;;;;2.27;1.30;;;11.10;99.90;;;;;;5084164;28;20654;-68
2022/06/10 09:10:19;;;;;;;3.67;1.80;;;11.10;99.90;;;;;;5091662;28;20214;-67
2022/06/10 09:13:14;;;;;;;3.73;2.30;;;11.00;99.90;;;;;;5083724;28;20180;-66
2022/06/10 09:15:53;;;;;;;2.93;1.80;;;11.00;99.90;;;;;;5084787;28;20175;-66
2022/06/10 09:18:33;;;;;;;1.60;1.27;;;10.90;99.90;;;;;;5081684;28;20177;-66
2022/06/10 09:21:19;;;;;;;1.43;1.20;;;11.10;99.90;;;;;;5063313;28;20180;-66
2022/06/10 09:23:47;;;;;;;2.77;1.17;;;11.10;99.90;;;;;;5084369;28;20183;-66
2022/06/10 09:26:26;;;;;;;2.63;1.77;;;11.20;99.90;;;;;;5071205;28;20232;-67
2022/06/10 09:28:55;;;;;;;1.60;1.30;;;11.10;99.90;;;;;;5091847;28;21042;-67
2022/06/10 09:31:32;;;;;;;1.93;1.50;;;10.90;99.90;;;;;;5095331;28;20617;-66
2022/06/10 09:34:45;;;;;;;3.90;1.63;;;10.80;99.90;;;;;;5095438;28;20172;-67
2022/06/10 09:37:19;;;;;;;2.00;1.10;;;10.60;99.90;;;;;;5084240;28;20199;-66
2022/06/10 09:43:19;;;;;;;1.73;1.27;;;10.20;99.90;;;;;;5096612;28;20292;-67
2022/06/10 09:46:20;;;;;;;3.33;1.27;;;10.20;99.90;;;;;;5057916;28;20198;-67
2022/06/10 09:49:06;;;;;;;1.40;1.10;;;10.00;99.90;;;;;;5096317;28;20196;-67
2022/06/10 09:52:17;;;;;;;2.73;1.10;;;9.90;99.90;;;;;;5096589;28;20178;-68
2022/06/10 09:55:22;;;;;;;2.37;1.30;;;9.70;99.90;;;;;;5064427;28;20621;-67
2022/06/10 09:58:02;;;;;;;8.10;3.83;;;9.70;99.90;;;;;;5084120;28;20188;-67
2022/06/10 10:00:53;;;;;;;5.53;3.20;;;9.80;99.90;;;;;;5088990;28;20542;-68
2022/06/10 10:03:28;;;;;;;5.23;2.87;;;9.70;99.90;;;;;;5036445;28;20200;-67
2022/06/10 10:06:20;;;;;;;6.43;3.27;;;9.60;99.90;;;;;;5075900;28;20164;-68
2022/06/10 10:08:59;;;;;;;9.40;4.30;;;9.40;99.90;;;;;;5075951;28;20321;-67
2022/06/10 10:12:02;;;;;;;7.67;3.97;;;9.20;99.90;;;;;;5075971;28;20187;-67
2022/06/10 10:14:42;;;;;;;5.63;3.30;;;9.00;99.90;;;;;;5075731;28;20170;-67
2022/06/10 10:17:34;;;;;;;4.60;3.13;;;9.00;99.90;;;;;;5074785;28;20187;-67
2022/06/10 10:20:31;;;;;;;5.10;3.13;;;8.90;99.90;;;;;;5095934;28;20182;-66
2022/06/10 10:23:11;;;;;;;3.37;2.60;;;8.90;99.90;;;;;;5085922;28;20184;-67
2022/06/10 10:25:40;;;;;;;3.33;2.40;;;8.80;99.90;;;;;;5095803;28;20595;-67
2022/06/10 10:28:15;;;;;;;3.27;2.40;;;8.80;99.90;;;;;;5078006;28;20185;-67
2022/06/10 10:31:15;;;;;;;4.73;2.20;;;8.90;99.90;;;;;;5075269;28;20198;-66
2022/06/10 10:33:45;;;;;;;3.80;2.40;;;8.80;99.90;;;;;;5066047;28;20209;-66
2022/06/10 10:36:30;;;;;;;3.13;2.03;;;8.70;99.90;;;;;;5075532;28;20180;-66
2022/06/10 10:38:58;;;;;;;3.73;1.60;;;8.60;99.90;;;;;;5057329;28;20193;-65
2022/06/10 10:41:37;;;;;;;1.87;1.60;;;8.70;99.90;;;;;;5074178;28;20257;-65
2022/06/10 10:44:24;;;;;;;2.00;1.60;;;8.80;99.90;;;;;;5057439;28;20204;-66
2022/06/10 10:47:21;;;;;;;2.57;1.90;;;9.00;99.90;;;;;;5075044;28;20211;-65
2022/06/10 10:49:55;;;;;;;4.03;2.47;;;9.00;99.90;;;;;;5075397;28;20665;-67
2022/06/10 10:52:36;;;;;;;6.23;2.80;;;9.10;99.90;;;;;;5075402;28;20174;-67
2022/06/10 10:55:12;;;;;;;2.97;2.40;;;9.00;99.90;;;;;;5075119;28;20198;-66
2022/06/10 10:58:04;;;;;;;2.80;2.17;;;8.80;99.90;;;;;;5075056;28;20175;-66
2022/06/10 11:00:46;;;;;;;3.43;2.30;;;8.70;99.90;;;;;;5062159;28;20180;-66
2022/06/10 11:03:37;;;;;;;2.90;2.17;;;8.60;99.90;;;;;;5074937;28;20243;-66
2022/06/10 11:06:06;;;;;;;1.80;1.20;;;8.60;99.90;;;;;;5074726;28;20185;-65
2022/06/10 11:08:37;;;;;;;1.77;1.23;;;9.20;99.90;;;;;;5074679;28;20263;-68
2022/06/10 11:11:17;;;;;;;0.93;0.90;;;10.00;99.90;;;;;;5056702;28;20194;-67
2022/06/10 11:13:49;;;;;;;1.03;1.00;;;10.50;99.90;;;;;;5074735;28;20164;-67
2022/06/10 11:16:30;;;;;;;1.83;0.90;;;10.80;99.90;;;;;;5057132;28;20275;-66
2022/06/10 11:19:05;;;;;;;0.80;0.80;;;11.00;99.90;;;;;;5073541;28;20183;-66
2022/06/10 11:21:51;;;;;;;1.57;0.80;;;11.10;99.90;;;;;;5082486;28;20179;-66
2022/06/10 11:24:26;;;;;;;0.90;0.80;;;11.20;99.90;;;;;;5066161;28;20599;-67
2022/06/10 11:26:58;;;;;;;0.70;0.70;;;11.30;99.90;;;;;;5082653;28;20309;-66
2022/06/10 11:29:27;;;;;;;0.83;0.83;;;11.40;99.90;;;;;;5082735;28;20665;-67
2022/06/10 11:31:57;;;;;;;0.93;0.80;;;11.40;99.90;;;;;;5083601;28;20172;-67
2022/06/10 11:34:40;;;;;;;0.87;0.70;;;11.40;99.90;;;;;;5082807;28;20203;-67
2022/06/10 11:37:29;;;;;;;0.70;0.70;;;11.40;99.90;;;;;;5084323;28;20607;-67
2022/06/10 11:40:11;;;;;;;0.80;0.80;;;11.40;99.90;;;;;;5084791;28;20191;-67
2022/06/10 11:42:55;;;;;;;1.00;0.70;;;11.30;99.90;;;;;;5088149;28;20200;-67
2022/06/10 11:46:02;;;;;;;0.87;0.70;;;11.10;99.90;;;;;;5073494;28;20176;-67
2022/06/10 11:48:37;;;;;;;1.33;1.00;;;11.00;99.90;;;;;;5088800;28;20263;-67
2022/06/10 11:51:14;;;;;;;1.10;1.00;;;11.00;99.90;;;;;;5093993;28;20183;-66
2022/06/10 11:54:04;;;;;;;1.07;0.97;;;10.90;99.90;;;;;;5094129;28;20172;-67
2022/06/10 11:59:46;;;;;;;0.80;0.80;;;10.80;99.90;;;;;;5094669;28;20186;-66
2022/06/10 12:02:43;;;;;;;0.93;0.80;;;10.80;99.90;;;;;;5090708;28;20183;-66
2022/06/10 12:05:44;;;;;;;1.37;1.10;;;10.70;99.90;;;;;;5086006;28;20282;-66
2022/06/10 12:08:39;;;;;;;1.07;0.93;;;10.60;99.90;;;;;;5081425;28;20167;-66
2022/06/10 12:11:24;;;;;;;1.13;0.80;;;10.50;99.90;;;;;;5088039;28;20184;-66
2022/06/10 12:14:00;;;;;;;0.80;0.80;;;10.50;99.90;;;;;;5083305;28;20181;-66
2022/06/10 12:16:30;;;;;;;0.93;0.80;;;10.30;99.90;;;;;;5085697;28;20167;-65
2022/06/10 12:18:59;;;;;;;0.80;0.80;;;10.20;99.90;;;;;;5075516;28;20519;-66
2022/06/10 12:21:30;;;;;;;1.07;1.00;;;10.00;99.90;;;;;;5075392;28;20234;-66
2022/06/10 12:23:58;;;;;;;5.33;2.43;;;9.90;99.90;;;;;;5093500;28;20187;-66
2022/06/10 12:26:55;;;;;;;0.90;0.87;;;9.60;99.90;;;;;;5093187;28;20597;-66
2022/06/10 12:29:46;;;;;;;1.13;1.00;;;9.50;99.90;;;;;;5071138;28;20236;-68
2022/06/10 12:32:29;;;;;;;1.10;1.00;;;9.30;99.90;;;;;;5065976;28;20548;-65
2022/06/10 12:35:08;;;;;;;1.63;0.83;;;9.10;99.90;;;;;;5075744;28;20263;-65
2022/06/10 12:37:44;;;;;;;1.20;1.10;;;8.90;99.90;;;;;;5073255;28;20224;-67
2022/06/10 12:40:12;;;;;;;1.30;1.07;;;8.70;99.90;;;;;;5073415;28;20181;-66
2022/06/10 12:43:05;;;;;;;1.23;1.00;;;8.60;99.90;;;;;;5072934;28;20557;-66
2022/06/10 12:46:01;;;;;;;1.27;1.17;;;8.50;99.90;;;;;;5055487;28;20572;-67
2022/06/10 12:48:44;;;;;;;2.37;0.93;;;8.30;99.90;;;;;;5035076;28;20219;-67
2022/06/10 12:51:32;;;;;;;1.70;1.10;;;8.10;99.90;;;;;;5073171;28;20286;-67
2022/06/10 12:54:24;;;;;;;1.97;1.30;;;8.10;99.90;;;;;;5073138;28;20173;-66
2022/06/10 12:57:23;;;;;;;5.53;2.73;;;8.00;99.90;;;;;;5072973;28;20255;-66
2022/06/10 12:59:50;;;;;;;2.37;1.80;;;7.80;99.90;;;;;;5073189;28;20242;-66
2022/06/10 13:03:02;;;;;;;2.63;1.80;;;7.80;99.90;;;;;;5073034;28;20222;-67
2022/06/10 13:05:33;;;;;;;3.07;2.10;;;7.80;99.90;;;;;;5070369;28;20180;-66
2022/06/10 13:08:01;;;;;;;4.47;2.20;;;7.80;99.90;;;;;;5072713;28;20184;-67
2022/06/10 13:10:34;;;;;;;3.93;2.20;;;7.70;99.90;;;;;;5072663;28;20549;-66
2022/06/10 13:13:15;;;;;;;3.67;2.27;;;7.70;99.90;;;;;;5072805;28;20175;-66
2022/06/10 13:15:43;;;;;;;4.33;2.57;;;7.60;99.90;;;;;;5072755;28;20188;-66
2022/06/10 13:18:20;;;;;;;3.80;2.57;;;7.60;99.90;;;;;;5072668;28;20227;-66
2022/06/10 13:20:49;;;;;;;4.83;2.53;;;7.50;99.90;;;;;;5072910;28;20202;-67
2022/06/10 13:23:24;;;;;;;4.60;2.17;;;7.50;99.90;;;;;;5072667;28;20302;-67
2022/06/10 13:26:08;;;;;;;3.10;1.93;;;7.50;99.90;;;;;;5072414;28;20269;-66
2022/06/10 13:28:42;;;;;;;7.13;2.10;;;7.50;99.90;;;;;;5073093;28;20184;-66
2022/06/10 13:31:24;;;;;;;3.93;2.20;;;7.40;99.90;;;;;;5054660;28;20549;-67
2022/06/10 13:34:06;;;;;;;3.27;2.00;;;7.40;99.90;;;;;;5054525;28;20183;-66
2022/06/10 13:36:37;;;;;;;3.20;2.20;;;7.30;99.90;;;;;;5054604;28;20216;-66
2022/06/10 13:39:07;;;;;;;2.97;1.90;;;7.30;99.90;;;;;;5072593;28;20177;-66
2022/06/10 13:41:52;;;;;;;5.70;2.47;;;7.20;99.90;;;;;;5054500;28;20194;-66
2022/06/10 13:44:38;;;;;;;4.83;2.63;;;7.20;99.90;;;;;;5072423;28;20191;-66
2022/06/10 13:47:27;;;;;;;2.97;2.30;;;7.20;99.90;;;;;;5072260;28;20274;-66
2022/06/10 13:50:22;;;;;;;3.67;2.57;;;7.10;99.90;;;;;;5072417;28;20227;-67
2022/06/10 13:53:04;;;;;;;3.13;1.90;;;7.00;99.90;;;;;;5073069;28;20629;-66
2022/06/10 13:55:38;;;;;;;8.10;2.20;;;7.00;99.90;;;;;;5072361;28;20180;-66